createdAt,value
2018-08-11T01:40:52.948Z,0
2018-08-11T03:11:59.456Z,3
2018-08-11T03:20:30.081Z,7
2018-08-11T03:23:30.186Z,10
2018-08-11T03:26:00.825Z,13
2018-08-11T03:27:30.497Z,17
2018-08-11T03:29:01.354Z,20
2018-08-11T03:30:01.448Z,23
2018-08-11T03:30:30.876Z,27
2018-08-11T03:31:30.687Z,30
2018-08-11T03:32:00.797Z,33
2018-08-11T03:33:01.047Z,37
2018-08-11T03:33:30.779Z,40
2018-08-11T03:34:01.333Z,43
2018-08-11T03:34:30.817Z,47
2018-08-11T03:35:01.437Z,50
2018-08-11T03:35:31.403Z,53
2018-08-11T03:36:00.997Z,57
2018-08-11T03:36:30.953Z,63
2018-08-11T03:37:01.248Z,67
2018-08-11T03:37:31.027Z,70
2018-08-11T03:38:01.514Z,77
2018-08-11T03:38:31.073Z,83
2018-08-11T03:39:01.095Z,87
2018-08-11T03:39:31.147Z,97
2018-08-11T03:40:01.194Z,103
2018-08-11T03:40:31.332Z,110
2018-08-11T03:41:01.251Z,120
2018-08-11T03:41:31.261Z,130
2018-08-11T03:42:01.448Z,137
2018-08-11T03:42:31.337Z,143
2018-08-11T03:43:01.336Z,150
2018-08-11T03:43:31.432Z,157
2018-08-11T03:44:01.430Z,160
2018-08-11T03:44:31.460Z,167
2018-08-11T03:45:01.470Z,173
2018-08-11T03:45:31.792Z,183
2018-08-11T03:46:07.161Z,193
2018-08-11T03:46:31.625Z,203
2018-08-11T03:47:01.608Z,213
2018-08-11T03:47:31.659Z,223
2018-08-11T03:48:01.655Z,233
2018-08-11T03:48:31.697Z,250
2018-08-11T03:49:01.715Z,263
2018-08-11T03:49:31.752Z,277
2018-08-11T03:50:01.770Z,293
2018-08-11T03:50:31.848Z,307
2018-08-11T03:51:01.825Z,320
2018-08-11T03:51:32.125Z,333
2018-08-11T03:52:01.923Z,347
2018-08-11T03:52:32.309Z,360
2018-08-11T03:53:01.952Z,373
2018-08-11T03:53:32.055Z,387
2018-08-11T03:54:02.011Z,400
2018-08-11T03:54:32.064Z,413
2018-08-11T03:55:02.076Z,427
2018-08-11T03:55:32.189Z,437
2018-08-11T03:56:02.172Z,450
2018-08-11T03:56:32.451Z,467
2018-08-11T03:57:02.232Z,483
2018-08-11T03:57:32.254Z,500
2018-08-11T03:58:02.344Z,523
2018-08-11T03:58:32.330Z,547
2018-08-11T03:59:02.324Z,570
2018-08-11T03:59:32.387Z,593
2018-08-11T04:00:02.413Z,613
2018-08-11T04:00:32.488Z,633
2018-08-11T04:01:02.483Z,643
2018-08-11T04:01:32.640Z,657
2018-08-11T04:02:02.571Z,670
2018-08-11T04:02:32.627Z,680
2018-08-11T04:03:02.600Z,693
2018-08-11T04:03:32.653Z,703
2018-08-11T04:04:02.693Z,720
2018-08-11T04:04:32.715Z,733
2018-08-11T04:05:02.733Z,750
2018-08-11T04:05:32.898Z,770
2018-08-11T04:06:02.780Z,783
2018-08-11T04:06:33.354Z,800
2018-08-11T04:07:02.839Z,810
2018-08-11T04:07:32.869Z,820
2018-08-11T04:08:02.872Z,833
2018-08-11T04:08:32.919Z,847
2018-08-11T04:09:02.941Z,860
2018-08-11T04:09:32.987Z,877
2018-08-11T04:10:03.087Z,900
2018-08-11T04:10:33.078Z,923
2018-08-11T04:11:03.122Z,950
2018-08-11T04:11:33.267Z,973
2018-08-11T04:12:03.174Z,1000
2018-08-11T04:12:33.207Z,1020
2018-08-11T04:13:03.271Z,1033
2018-08-11T04:13:33.283Z,1047
2018-08-11T04:14:03.302Z,1057
2018-08-11T04:14:33.332Z,1063
2018-08-11T04:15:03.347Z,1070
2018-08-11T04:15:33.398Z,1083
2018-08-11T04:16:03.440Z,1100
2018-08-11T04:16:33.583Z,1113
2018-08-11T04:17:03.453Z,1133
2018-08-11T04:17:33.543Z,1157
2018-08-11T04:18:03.495Z,1203
2018-08-11T04:18:33.585Z,1267
2018-08-11T04:19:03.559Z,1343
2018-08-11T04:19:33.653Z,1423
2018-08-11T04:20:03.669Z,1497
2018-08-11T04:20:33.678Z,1563
2018-08-11T04:21:03.728Z,1627
2018-08-11T04:21:34.256Z,1677
2018-08-11T04:22:03.779Z,1703
2018-08-11T04:22:33.792Z,1720
2018-08-11T04:23:03.801Z,1747
2018-08-11T04:23:33.846Z,1783
2018-08-11T04:24:03.877Z,1813
2018-08-11T04:24:33.916Z,1837
2018-08-11T04:25:03.949Z,1857
2018-08-11T04:25:34.001Z,1877
2018-08-11T04:26:04.004Z,1890
2018-08-11T04:26:34.562Z,1910
2018-08-11T04:27:04.063Z,1937
2018-08-11T04:27:34.155Z,1993
2018-08-11T04:28:04.121Z,2080
2018-08-11T04:28:34.207Z,2170
2018-08-11T04:29:04.184Z,2270
2018-08-11T04:29:34.251Z,2400
2018-08-11T04:30:04.242Z,2543
2018-08-11T04:30:34.291Z,2723
2018-08-11T04:31:04.371Z,2903
2018-08-11T04:31:34.513Z,3080
2018-08-11T04:32:04.376Z,3227
2018-08-11T04:32:34.449Z,3353
2018-08-11T04:33:04.421Z,3460
2018-08-11T04:33:34.544Z,3543
2018-08-11T04:34:04.486Z,3597
2018-08-11T04:34:34.534Z,3623
2018-08-11T04:35:04.580Z,3657
2018-08-11T04:35:34.668Z,3673
2018-08-11T04:36:04.638Z,3690
2018-08-11T04:36:34.785Z,3707
2018-08-11T04:37:04.728Z,3713
2018-08-11T04:37:34.707Z,3717
2018-08-11T04:38:04.725Z,3743
2018-08-11T04:38:34.778Z,3757
2018-08-11T04:39:04.796Z,3780
2018-08-11T04:39:34.827Z,3813
2018-08-11T04:40:04.844Z,3863
2018-08-11T04:40:34.898Z,3933
2018-08-11T04:41:04.912Z,4030
2018-08-11T04:41:35.232Z,4140
2018-08-11T04:42:05.028Z,4267
2018-08-11T04:42:35.030Z,4407
2018-08-11T04:43:05.276Z,4493
2018-08-11T04:43:35.086Z,4563
2018-08-11T04:44:05.094Z,4620
2018-08-11T04:44:35.158Z,4660
2018-08-11T04:45:05.188Z,4700
2018-08-11T04:45:35.210Z,4737
2018-08-11T04:46:05.224Z,4793
2018-08-11T04:46:35.415Z,4883
2018-08-11T04:47:05.343Z,4957
2018-08-11T04:47:35.361Z,5027
2018-08-11T04:48:05.387Z,5087
2018-08-11T04:48:35.443Z,5190
2018-08-11T04:49:05.449Z,5273
2018-08-11T04:49:35.480Z,5350
2018-08-11T04:50:05.466Z,5443
2018-08-11T04:50:35.532Z,5467
2018-08-11T04:51:05.566Z,5503
2018-08-11T04:51:36.147Z,5480
2018-08-11T04:52:05.635Z,5427
2018-08-11T04:52:35.698Z,5417
2018-08-11T04:53:05.688Z,5493
2018-08-11T04:53:35.738Z,5677
2018-08-11T04:54:05.748Z,5880
2018-08-11T04:54:35.784Z,6200
2018-08-11T04:55:05.813Z,6450
2018-08-11T04:55:35.878Z,6717
2018-08-11T04:56:05.872Z,6960
2018-08-11T04:56:36.416Z,7190
2018-08-11T04:57:05.927Z,7410
2018-08-11T04:57:35.978Z,7573
2018-08-11T04:58:05.983Z,7707
2018-08-11T04:58:36.024Z,7730
2018-08-11T04:59:06.044Z,7750
2018-08-11T04:59:36.155Z,7727
2018-08-11T05:00:06.087Z,7703
2018-08-11T05:00:36.195Z,7683
2018-08-11T05:01:06.185Z,7750
2018-08-11T05:01:36.357Z,7713
2018-08-11T05:02:06.218Z,7737
2018-08-11T05:02:36.295Z,7797
2018-08-11T05:03:06.332Z,7883
2018-08-11T05:03:36.354Z,7897
2018-08-11T05:04:06.353Z,7893
2018-08-11T05:04:36.451Z,7857
2018-08-11T05:05:06.430Z,7910
2018-08-11T05:05:36.496Z,7873
2018-08-11T05:06:06.523Z,7783
2018-08-11T05:06:36.641Z,7733
2018-08-11T05:07:06.517Z,7620
2018-08-11T05:07:36.600Z,7507
2018-08-11T05:08:06.594Z,7327
2018-08-11T05:08:36.631Z,7150
2018-08-11T05:09:06.662Z,6833
2018-08-11T05:09:36.693Z,6497
2018-08-11T05:10:06.695Z,6280
2018-08-11T05:10:36.779Z,6137
2018-08-11T05:11:06.755Z,6157
2018-08-11T05:11:36.968Z,6110
2018-08-11T05:12:06.833Z,6533
2018-08-11T05:12:36.922Z,6263
2018-08-11T05:13:06.882Z,6333
2018-08-11T05:13:36.943Z,6410
2018-08-11T05:14:06.953Z,6493
2018-08-11T05:14:36.992Z,6480
2018-08-11T05:15:07.015Z,6537
2018-08-11T05:15:37.065Z,6640
2018-08-11T05:16:07.061Z,6777
2018-08-11T05:16:37.251Z,7047
2018-08-11T05:17:07.132Z,7360
2018-08-11T05:17:37.180Z,7663
2018-08-11T05:18:07.202Z,7947
2018-08-11T05:18:37.287Z,8357
2018-08-11T05:19:07.282Z,8850
2018-08-11T05:19:37.323Z,9150
2018-08-11T05:20:07.366Z,9617
2018-08-11T05:20:37.407Z,10163
2018-08-11T05:21:07.406Z,10390
2018-08-11T05:21:37.581Z,10713
2018-08-11T05:22:07.515Z,10957
2018-08-11T05:22:37.545Z,11193
2018-08-11T05:23:07.504Z,11070
2018-08-11T05:23:37.617Z,11017
2018-08-11T05:24:07.626Z,10720
2018-08-11T05:24:37.601Z,10623
2018-08-11T05:25:07.632Z,10590
2018-08-11T05:25:37.716Z,10643
2018-08-11T05:26:07.713Z,10803
2018-08-11T05:26:37.997Z,10930
2018-08-11T05:27:07.800Z,10850
2018-08-11T05:27:37.805Z,10830
2018-08-11T05:28:07.806Z,10607
2018-08-11T05:28:37.874Z,10387
2018-08-11T05:29:07.867Z,10133
2018-08-11T05:29:37.921Z,9880
2018-08-11T05:30:07.940Z,9693
2018-08-11T05:30:37.978Z,9397
2018-08-11T05:31:07.991Z,9067
2018-08-11T05:31:38.173Z,8840
2018-08-11T05:32:08.056Z,8603
2018-08-11T05:32:38.139Z,8647
2018-08-11T05:33:08.135Z,8660
2018-08-11T05:33:38.167Z,8747
2018-08-11T05:34:08.229Z,8843
2018-08-11T05:34:38.240Z,9313
2018-08-11T05:35:08.236Z,9823
2018-08-11T05:35:38.325Z,10717
2018-08-11T05:36:08.297Z,11703
2018-08-11T05:36:38.490Z,12897
2018-08-11T05:37:08.394Z,13950
2018-08-11T05:37:38.431Z,14650
2018-08-11T05:38:08.473Z,15510
2018-08-11T05:38:38.506Z,17183
2018-08-11T05:39:08.503Z,18510
2018-08-11T05:39:38.592Z,20373
2018-08-11T05:40:08.566Z,23987
2018-08-11T05:40:38.628Z,26403
2018-08-11T05:41:08.652Z,27473
2018-08-11T05:41:38.857Z,28550
2018-08-11T05:42:08.712Z,25403
2018-08-11T05:42:38.779Z,21413
2018-08-11T05:43:08.727Z,17227
2018-08-11T05:43:38.814Z,14293
2018-08-11T05:44:08.847Z,12470
2018-08-11T05:44:38.881Z,11697
2018-08-11T05:45:08.875Z,11200
2018-08-11T05:45:38.938Z,10873
2018-08-11T05:46:08.941Z,10000
2018-08-11T05:46:39.241Z,9087
2018-08-11T05:47:09.002Z,8257
2018-08-11T05:47:39.058Z,7860
2018-08-11T05:48:09.060Z,7620
2018-08-11T05:48:39.648Z,7350
2018-08-11T05:49:09.635Z,6997
2018-08-11T05:49:39.664Z,6750
2018-08-11T05:50:09.672Z,6913
2018-08-11T05:50:39.740Z,7263
2018-08-11T05:51:09.734Z,7820
2018-08-11T05:51:39.907Z,8430
2018-08-11T05:52:09.797Z,8823
2018-08-11T05:52:39.911Z,9197
2018-08-11T05:53:09.856Z,9417
2018-08-11T05:53:39.901Z,8730
2018-08-11T05:54:09.922Z,7530
2018-08-11T05:54:39.983Z,6073
2018-08-11T05:55:10.039Z,4857
2018-08-11T05:55:40.030Z,4073
2018-08-11T05:56:10.056Z,3653
2018-08-11T05:56:40.358Z,3453
2018-08-11T05:57:10.131Z,3457
2018-08-11T05:57:40.172Z,3657
2018-08-11T05:58:10.166Z,3950
2018-08-11T05:58:40.263Z,4460
2018-08-11T05:59:10.258Z,4937
2018-08-11T05:59:40.289Z,5370
2018-08-11T06:00:10.286Z,5720
2018-08-11T06:00:40.378Z,5863
2018-08-11T06:01:10.361Z,6080
2018-08-11T06:01:40.905Z,5983
2018-08-11T06:02:10.455Z,6087
2018-08-11T06:02:40.463Z,6010
2018-08-11T06:03:10.505Z,6163
2018-08-11T06:03:40.519Z,6237
2018-08-11T06:04:10.632Z,6383
2018-08-11T06:04:40.595Z,6393
2018-08-11T06:05:10.660Z,6763
2018-08-11T06:05:40.658Z,7250
2018-08-11T06:06:10.687Z,7780
2018-08-11T06:06:41.237Z,8073
2018-08-11T06:07:10.731Z,8317
2018-08-11T06:07:40.764Z,8400
2018-08-11T06:08:10.790Z,8543
2018-08-11T06:08:40.911Z,8857
2018-08-11T06:09:10.838Z,9077
2018-08-11T06:09:40.886Z,9387
2018-08-11T06:10:10.913Z,9683
2018-08-11T06:10:40.978Z,9830
2018-08-11T06:11:10.966Z,9580
2018-08-11T06:11:41.140Z,9220
2018-08-11T06:12:11.049Z,8960
2018-08-11T06:12:41.087Z,8657
2018-08-11T06:13:11.099Z,8627
2018-08-11T06:13:41.188Z,8687
2018-08-11T06:14:11.153Z,8800
2018-08-11T06:14:41.262Z,8927
2018-08-11T06:15:11.231Z,8790
2018-08-11T06:15:41.316Z,8277
2018-08-11T06:16:11.297Z,7753
2018-08-11T06:16:41.493Z,7513
2018-08-11T06:17:11.373Z,7543
2018-08-11T06:17:41.417Z,7890
2018-08-11T06:18:11.440Z,8297
2018-08-11T06:18:41.485Z,9057
2018-08-11T06:19:11.509Z,9323
2018-08-11T06:19:41.580Z,9417
2018-08-11T06:20:11.596Z,9843
2018-08-11T06:20:41.654Z,9810
2018-08-11T06:21:11.780Z,9740
2018-08-11T06:21:41.818Z,9400
2018-08-11T06:22:11.699Z,9090
2018-08-11T06:22:41.712Z,8960
2018-08-11T06:23:11.748Z,8703
2018-08-11T06:23:41.820Z,8323
2018-08-11T06:24:11.766Z,7930
2018-08-11T06:24:41.827Z,7673
2018-08-11T06:25:11.836Z,7767
2018-08-11T06:25:41.911Z,7563
2018-08-11T06:26:11.921Z,7293
2018-08-11T06:26:42.225Z,6723
2018-08-11T06:27:11.983Z,6100
2018-08-11T06:27:42.040Z,5470
2018-08-11T06:28:12.061Z,4970
2018-08-11T06:28:42.114Z,4917
2018-08-11T06:29:12.107Z,4603
2018-08-11T06:29:42.163Z,4687
2018-08-11T06:30:12.172Z,4447
2018-08-11T06:30:42.198Z,4653
2018-08-11T06:31:12.273Z,4410
2018-08-11T06:31:42.485Z,4323
2018-08-11T06:32:12.345Z,4127
2018-08-11T06:32:42.343Z,4010
2018-08-11T06:33:12.393Z,3947
2018-08-11T06:33:42.412Z,4070
2018-08-11T06:34:12.444Z,4427
2018-08-11T06:34:42.441Z,4957
2018-08-11T06:35:12.481Z,5537
2018-08-11T06:35:42.501Z,6120
2018-08-11T06:36:12.507Z,6607
2018-08-11T06:36:42.698Z,7090
2018-08-11T06:37:12.584Z,7700
2018-08-11T06:37:42.639Z,8130
2018-08-11T06:38:12.657Z,8797
2018-08-11T06:38:42.730Z,9280
2018-08-11T06:39:12.711Z,9803
2018-08-11T06:39:42.793Z,10670
2018-08-11T06:40:12.777Z,11513
2018-08-11T06:40:42.929Z,12387
2018-08-11T06:41:12.834Z,13313
2018-08-11T06:41:43.416Z,14230
2018-08-11T06:42:12.875Z,15160
2018-08-11T06:42:42.922Z,15927
2018-08-11T06:43:13.002Z,16287
2018-08-11T06:43:43.002Z,16543
2018-08-11T06:44:13.012Z,17187
2018-08-11T06:44:43.069Z,18103
2018-08-11T06:45:13.057Z,19563
2018-08-11T06:45:43.281Z,19847
2018-08-11T06:46:13.117Z,19727
2018-08-11T06:46:43.334Z,20077
2018-08-11T06:47:13.257Z,20693
2018-08-11T06:47:43.243Z,20663
2018-08-11T06:48:13.243Z,20483
2018-08-11T06:48:43.310Z,19753
2018-08-11T06:49:13.349Z,18543
2018-08-11T06:49:43.401Z,17290
2018-08-11T06:50:13.395Z,14383
2018-08-11T06:50:43.432Z,13333
2018-08-11T06:51:13.485Z,13037
2018-08-11T06:51:43.623Z,12747
2018-08-11T06:52:13.576Z,11687
2018-08-11T06:52:43.531Z,10183
2018-08-11T06:53:13.586Z,9110
2018-08-11T06:53:43.664Z,8993
2018-08-11T06:54:13.613Z,8557
2018-08-11T06:54:43.661Z,9143
2018-08-11T06:55:13.795Z,9603
2018-08-11T06:55:43.724Z,9783
2018-08-11T06:56:13.744Z,10620
2018-08-11T06:56:44.057Z,11983
2018-08-11T06:57:13.846Z,13727
2018-08-11T06:57:43.846Z,16143
2018-08-11T06:58:13.892Z,15217
2018-08-11T06:58:43.905Z,13940
2018-08-11T06:59:13.982Z,13097
2018-08-11T06:59:43.976Z,11373
2018-08-11T07:00:13.997Z,10750
2018-08-11T07:00:44.039Z,9683
2018-08-11T07:01:14.047Z,8917
2018-08-11T07:01:44.240Z,8773
2018-08-11T07:02:14.113Z,8260
2018-08-11T07:02:44.168Z,8117
2018-08-11T07:03:14.175Z,8140
2018-08-11T07:03:44.235Z,8630
2018-08-11T07:04:14.235Z,8880
2018-08-11T07:04:44.319Z,8620
2018-08-11T07:05:14.312Z,8063
2018-08-11T07:05:44.432Z,8213
2018-08-11T07:06:14.351Z,8423
2018-08-11T07:06:45.023Z,8877
2018-08-11T07:07:14.464Z,8747
2018-08-11T07:07:44.554Z,8840
2018-08-11T07:08:14.513Z,9257
2018-08-11T07:08:44.585Z,8793
2018-08-11T07:09:14.588Z,8800
2018-08-11T07:09:44.653Z,8710
2018-08-11T07:10:14.670Z,8683
2018-08-11T07:10:44.699Z,8913
2018-08-11T07:11:14.745Z,8897
2018-08-11T07:11:44.886Z,8760
2018-08-11T07:12:14.788Z,8510
2018-08-11T07:12:44.840Z,9053
2018-08-11T07:13:14.825Z,8223
2018-08-11T07:13:44.831Z,8403
2018-08-11T07:14:14.885Z,8327
2018-08-11T07:14:44.943Z,8473
2018-08-11T07:15:14.977Z,8787
2018-08-11T07:15:45.004Z,8387
2018-08-11T07:16:15.043Z,8350
2018-08-11T07:16:45.389Z,8437
2018-08-11T07:17:15.055Z,8450
2018-08-11T07:17:45.142Z,8367
2018-08-11T07:18:15.085Z,8373
2018-08-11T07:18:45.211Z,8417
2018-08-11T07:19:15.204Z,8420
2018-08-11T07:19:45.238Z,8437
2018-08-11T07:20:15.213Z,8493
2018-08-11T07:20:45.306Z,8510
2018-08-11T07:21:15.368Z,8603
2018-08-11T07:21:45.485Z,8737
2018-08-11T07:22:15.337Z,9050
2018-08-11T07:22:45.403Z,8957
2018-08-11T07:23:15.398Z,9200
2018-08-11T07:23:45.479Z,9197
2018-08-11T07:24:15.500Z,9190
2018-08-11T07:24:45.548Z,9303
2018-08-11T07:25:15.554Z,9690
2018-08-11T07:25:45.569Z,9843
2018-08-11T07:26:15.603Z,10487
2018-08-11T07:26:46.159Z,10750
2018-08-11T07:27:15.670Z,10900
2018-08-11T07:27:45.733Z,11480
2018-08-11T07:28:15.725Z,12190
2018-08-11T07:28:45.839Z,13040
2018-08-11T07:29:15.808Z,16510
2018-08-11T07:29:45.831Z,17573
2018-08-11T07:30:15.898Z,13490
2018-08-11T07:30:45.874Z,13573
2018-08-11T07:31:15.894Z,15930
2018-08-11T07:31:46.068Z,23047
2018-08-11T07:32:15.952Z,25030
2018-08-11T07:32:46.053Z,23297
2018-08-11T07:33:16.015Z,26153
2018-08-11T07:33:46.081Z,25860
2018-08-11T07:34:16.275Z,19023
2018-08-11T07:34:46.119Z,17653
2018-08-11T07:35:16.163Z,22303
2018-08-11T07:35:46.348Z,23503
2018-08-11T07:36:16.282Z,20727
2018-08-11T07:36:46.426Z,35357
2018-08-11T07:37:16.272Z,24007
2018-08-11T07:37:46.360Z,25667
2018-08-11T07:38:16.331Z,26523
2018-08-11T07:38:46.394Z,29190
2018-08-11T07:39:16.461Z,29880
2018-08-11T07:39:46.479Z,33117
2018-08-11T07:40:16.472Z,22510
2018-08-11T07:40:46.568Z,20357
2018-08-11T07:41:16.520Z,19413
2018-08-11T07:41:46.667Z,37180
2018-08-11T07:42:16.579Z,24950
2018-08-11T07:42:46.690Z,40590
2018-08-11T07:43:16.691Z,38357
2018-08-11T07:43:46.709Z,19300
2018-08-11T07:44:16.760Z,18607
2018-08-11T07:44:46.760Z,17443
2018-08-11T07:45:16.766Z,25180
2018-08-11T07:45:46.850Z,13817
2018-08-11T07:46:16.845Z,14260
2018-08-11T07:46:46.877Z,15007
2018-08-11T07:47:16.945Z,27470
2018-08-11T07:47:46.929Z,14183
2018-08-11T07:48:16.946Z,12490
2018-08-11T07:48:46.995Z,15937
2018-08-11T07:49:17.016Z,15563
2018-08-11T07:49:47.070Z,18797
2018-08-11T07:50:17.109Z,13817
2018-08-11T07:50:47.121Z,16753
2018-08-11T07:51:17.159Z,16487
2018-08-11T07:51:47.195Z,15203
2018-08-11T07:52:17.239Z,13040
2018-08-11T07:52:47.256Z,13307
2018-08-11T07:53:17.312Z,14857
2018-08-11T07:53:47.382Z,13553
2018-08-11T07:54:17.339Z,14980
2018-08-11T07:54:47.442Z,16273
2018-08-11T07:55:17.423Z,13070
2018-08-11T07:55:47.474Z,10597
2018-08-11T07:56:17.497Z,15653
2018-08-11T07:56:47.509Z,10193
2018-08-11T07:57:17.545Z,10407
2018-08-11T07:57:47.573Z,16877
2018-08-11T07:58:17.606Z,32260
2018-08-11T07:58:47.632Z,22897
2018-08-11T07:59:17.657Z,23633
2018-08-11T07:59:47.701Z,16183
2018-08-11T08:00:17.776Z,46760
2018-08-11T08:00:47.761Z,10833
2018-08-11T08:01:17.845Z,12457
2018-08-11T08:01:47.856Z,19940
2018-08-11T08:02:17.823Z,11260
2018-08-11T08:02:47.907Z,11433
2018-08-11T08:03:17.898Z,10937
2018-08-11T08:03:47.966Z,11633
2018-08-11T08:04:17.954Z,11507
2018-08-11T08:04:47.972Z,10917
2018-08-11T08:05:18.016Z,10380
2018-08-11T08:05:48.060Z,10337
2018-08-11T08:06:18.135Z,10707
2018-08-11T08:06:48.150Z,11700
2018-08-11T08:07:18.124Z,12960
2018-08-11T08:07:48.206Z,12777
2018-08-11T08:08:18.224Z,15520
2018-08-11T08:08:48.926Z,14333
2018-08-11T08:09:18.922Z,13940
2018-08-11T08:09:48.976Z,13710
2018-08-11T08:10:18.990Z,14233
2018-08-11T08:10:49.060Z,14977
2018-08-11T08:11:19.048Z,14367
2018-08-11T08:11:49.156Z,14923
2018-08-11T08:12:19.119Z,17267
2018-08-11T08:12:49.163Z,20250
2018-08-11T08:13:19.186Z,23010
2018-08-11T08:13:49.424Z,26343
2018-08-11T08:14:19.244Z,28620
2018-08-11T08:14:49.306Z,28130
2018-08-11T08:15:19.340Z,24527
2018-08-11T08:15:49.374Z,21060
2018-08-11T08:16:19.400Z,21703
2018-08-11T08:16:49.413Z,25810
2018-08-11T08:17:19.441Z,29827
2018-08-11T08:17:49.492Z,31250
2018-08-11T08:18:19.569Z,30973
2018-08-11T08:18:49.549Z,49767
2018-08-11T08:19:19.566Z,40147
2018-08-11T08:19:49.612Z,55553
2018-08-11T08:20:19.654Z,48270
2018-08-11T08:20:49.658Z,64077
2018-08-11T08:21:19.711Z,35513
2018-08-11T08:21:49.720Z,24330
2018-08-11T08:22:19.774Z,23450
2018-08-11T08:22:49.792Z,21557
2018-08-11T08:23:19.796Z,59230
2018-08-11T08:23:49.867Z,34747
2018-08-11T08:24:19.879Z,62547
2018-08-11T08:24:49.904Z,28253
2018-08-11T08:25:19.914Z,31030
2018-08-11T08:25:49.965Z,28327
2018-08-11T08:26:20.243Z,33073
2018-08-11T08:26:50.106Z,38057
2018-08-11T08:27:20.065Z,17490
2018-08-11T08:27:50.086Z,31843
2018-08-11T08:28:20.166Z,14707
2018-08-11T08:28:50.145Z,16407
2018-08-11T08:29:20.164Z,13357
2018-08-11T08:29:50.230Z,13547
2018-08-11T08:30:20.257Z,28237
2018-08-11T08:30:50.590Z,32247
2018-08-11T08:31:20.285Z,96453
2018-08-11T08:31:50.386Z,22543
2018-08-11T08:32:20.370Z,38197
2018-08-11T08:32:50.418Z,30970
2018-08-11T08:33:20.416Z,91947
2018-08-11T08:33:50.547Z,21310
2018-08-11T08:34:20.538Z,22993
2018-08-11T08:34:50.566Z,17183
2018-08-11T08:35:20.569Z,93290
2018-08-11T08:35:50.891Z,42540
2018-08-11T08:36:20.597Z,74210
2018-08-11T08:36:50.673Z,26840
2018-08-11T08:37:20.667Z,59137
2018-08-11T08:37:50.747Z,51737
2018-08-11T08:38:20.723Z,35550
2018-08-11T08:38:50.837Z,75580
2018-08-11T08:39:20.826Z,78977
2018-08-11T08:39:50.863Z,104250
2018-08-11T08:40:20.892Z,102360
2018-08-11T08:40:51.093Z,101480
2018-08-11T08:41:20.952Z,99150
2018-08-11T08:41:51.053Z,91620
2018-08-11T08:42:20.978Z,101150
2018-08-11T08:42:51.066Z,20673
2018-08-11T08:43:21.074Z,95920
2018-08-11T08:43:51.120Z,95753
2018-08-11T08:44:21.161Z,97573
2018-08-11T08:44:51.215Z,100203
2018-08-11T08:45:21.213Z,92603
2018-08-11T08:45:51.321Z,24793
2018-08-11T08:46:21.263Z,25077
2018-08-11T08:46:51.319Z,100093
2018-08-11T08:47:21.348Z,24543
2018-08-11T08:47:51.352Z,36757
2018-08-11T08:48:21.385Z,96363
2018-08-11T08:48:51.422Z,99030
2018-08-11T08:49:21.452Z,98637
2018-08-11T08:49:51.467Z,96953
2018-08-11T08:50:21.544Z,96747
2018-08-11T08:50:51.643Z,96553
2018-08-11T08:51:21.582Z,96683
2018-08-11T08:51:51.563Z,96853
2018-08-11T08:52:21.650Z,95837
2018-08-11T08:52:51.638Z,95307
2018-08-11T08:53:21.736Z,94947
2018-08-11T08:53:52.006Z,96333
2018-08-11T08:54:22.016Z,95573
2018-08-11T08:54:52.063Z,95877
2018-08-11T08:55:22.084Z,97893
2018-08-11T08:55:52.206Z,98227
2018-08-11T08:56:22.146Z,96070
2018-08-11T08:56:52.200Z,94357
2018-08-11T08:57:22.255Z,96203
2018-08-11T08:57:52.297Z,96553
2018-08-11T08:58:22.311Z,97040
2018-08-11T08:58:52.315Z,99490
2018-08-11T08:59:22.340Z,100890
2018-08-11T08:59:52.514Z,102377
2018-08-11T09:00:22.493Z,100557
2018-08-11T09:00:52.577Z,98017
2018-08-11T09:01:22.676Z,97100
2018-08-11T09:01:52.648Z,97877
2018-08-11T09:02:22.632Z,99730
2018-08-11T09:02:52.895Z,101533
2018-08-11T09:03:22.886Z,102320
2018-08-11T09:03:53.168Z,16863
2018-08-11T09:04:23.142Z,100523
2018-08-11T09:04:54.320Z,98953
2018-08-11T09:05:24.134Z,68430
2018-08-11T09:05:54.206Z,100180
2018-08-11T09:06:24.205Z,99417
2018-08-11T09:06:54.250Z,100170
2018-08-11T09:07:24.468Z,100480
2018-08-11T09:07:54.295Z,98773
2018-08-11T09:08:24.359Z,100340
2018-08-11T09:08:54.404Z,101083
2018-08-11T09:09:24.430Z,80040
2018-08-11T09:09:54.486Z,101570
2018-08-11T09:10:24.463Z,102187
2018-08-11T09:10:54.520Z,102860
2018-08-11T09:11:24.505Z,95387
2018-08-11T09:11:54.557Z,103993
2018-08-11T09:12:24.600Z,37377
2018-08-11T09:12:54.617Z,99757
2018-08-11T09:13:24.652Z,100740
2018-08-11T09:13:54.676Z,105267
2018-08-11T09:14:24.717Z,65120
2018-08-11T09:14:54.730Z,110467
2018-08-11T09:15:24.768Z,111667
2018-08-11T09:15:54.911Z,111543
2018-08-11T09:16:24.818Z,107277
2018-08-11T09:16:54.858Z,107333
2018-08-11T09:17:24.872Z,106897
2018-08-11T09:17:54.920Z,101247
2018-08-11T09:18:24.937Z,65073
2018-08-11T09:18:54.991Z,48130
2018-08-11T09:19:25.069Z,107870
2018-08-11T09:19:55.045Z,21393
2018-08-11T09:20:25.057Z,20610
2018-08-11T09:20:55.252Z,20643
2018-08-11T09:21:25.140Z,106280
2018-08-11T09:21:55.370Z,17823
2018-08-11T09:22:25.469Z,18950
2018-08-11T09:22:55.466Z,45977
2018-08-11T09:23:25.511Z,28233
2018-08-11T09:23:55.490Z,102680
2018-08-11T09:24:25.534Z,105023
2018-08-11T09:24:55.602Z,107527
2018-08-11T09:25:25.558Z,34153
2018-08-11T09:25:55.880Z,35490
2018-08-11T09:26:25.651Z,125763
2018-08-11T09:26:55.676Z,129983
2018-08-11T09:27:25.714Z,132947
2018-08-11T09:27:55.795Z,50917
2018-08-11T09:28:25.748Z,86980
2018-08-11T09:28:55.852Z,33147
2018-08-11T09:29:25.814Z,31180
2018-08-11T09:29:55.868Z,112120
2018-08-11T09:30:25.894Z,111030
2018-08-11T09:30:56.188Z,110243
2018-08-11T09:31:25.929Z,104853
2018-08-11T09:31:55.981Z,111743
2018-08-11T09:32:26.041Z,108423
2018-08-11T09:32:56.055Z,106140
2018-08-11T09:33:26.060Z,106270
2018-08-11T09:33:56.135Z,108853
2018-08-11T09:34:26.120Z,110900
2018-08-11T09:34:56.210Z,114613
2018-08-11T09:35:26.197Z,118610
2018-08-11T09:35:57.005Z,123720
2018-08-11T09:36:26.956Z,126940
2018-08-11T09:36:56.996Z,130067
2018-08-11T09:37:27.012Z,63043
2018-08-11T09:37:57.039Z,125503
2018-08-11T09:38:27.122Z,45563
2018-08-11T09:38:57.105Z,120077
2018-08-11T09:39:27.169Z,35943
2018-08-11T09:39:57.173Z,35150
2018-08-11T09:40:27.157Z,86580
2018-08-11T09:40:57.707Z,113137
2018-08-11T09:41:27.262Z,109693
2018-08-11T09:41:57.259Z,108047
2018-08-11T09:42:27.303Z,108603
2018-08-11T09:42:57.351Z,108573
2018-08-11T09:43:27.389Z,107647
2018-08-11T09:43:57.376Z,106527
2018-08-11T09:44:27.454Z,107417
2018-08-11T09:44:57.519Z,107783
2018-08-11T09:45:27.465Z,108280
2018-08-11T09:45:57.635Z,109090
2018-08-11T09:46:27.532Z,108497
2018-08-11T09:46:57.605Z,109773
2018-08-11T09:47:27.587Z,110280
2018-08-11T09:47:57.656Z,110407
2018-08-11T09:48:27.649Z,110900
2018-08-11T09:48:57.704Z,112400
2018-08-11T09:49:27.731Z,115187
2018-08-11T09:49:57.749Z,117870
2018-08-11T09:50:27.790Z,121110
2018-08-11T09:50:57.939Z,124587
2018-08-11T09:51:27.927Z,125703
2018-08-11T09:51:57.883Z,127817
2018-08-11T09:52:27.921Z,119880
2018-08-11T09:52:57.931Z,124470
2018-08-11T09:53:27.970Z,123770
2018-08-11T09:53:57.992Z,129470
2018-08-11T09:54:28.036Z,132700
2018-08-11T09:54:58.058Z,134850
2018-08-11T09:55:28.085Z,133047
2018-08-11T09:55:58.255Z,132597
2018-08-11T09:56:28.182Z,133207
2018-08-11T09:56:58.182Z,130217
2018-08-11T09:57:28.234Z,104457
2018-08-11T09:57:58.244Z,129940
2018-08-11T09:58:28.313Z,132933
2018-08-11T09:58:58.322Z,132430
2018-08-11T09:59:28.354Z,131867
2018-08-11T09:59:58.384Z,129960
2018-08-11T10:00:28.426Z,128900
2018-08-11T10:00:58.685Z,127013